sensor_id;sensor_type;location;lat;lon;timestamp;pressure;altitude;pressure_sealevel;temperature;humidity
32452;BME280;45528;52.102;5.242;2022-12-18T00:01:00;102432.0;;;3.25;60.5
32452;BME280;45528;52.102;5.242;2022-12-18T00:04:16;102430.0;;;2.84;61.05
32452;BME280;45528;52.102;5.242;2022-12-18T00:05:59;102422.0;;;3.03;60.65
32452;BME280;45528;52.102;5.242;2022-12-18T00:07:36;102422.0;;;3.07;60.57
32452;BME280;45528;52.102;5.242;2022-12-18T00:09:12;102418.0;;;3.15;60.45
32452;BME280;45528;52.102;5.242;2022-12-18T00:12:24;102413.00000000001;;;3.07;60.93
32452;BME280;45528;52.102;5.242;2022-12-18T00:15:38;102402.0;;;3.18;60.38
32452;BME280;45528;52.102;5.242;2022-12-18T00:18:52;102402.0;;;2.96;60.68
32452;BME280;45528;52.102;5.242;2022-12-18T00:22:12;102401.0;;;3.06;60.62
32452;BME280;45528;52.102;5.242;2022-12-18T00:23:49;102398.0;;;2.98;60.48
32452;BME280;45528;52.102;5.242;2022-12-18T00:27:03;102403.0;;;2.7;60.75
32452;BME280;45528;52.102;5.242;2022-12-18T00:28:39;102409.99999999999;;;2.95;60.36
32452;BME280;45528;52.102;5.242;2022-12-18T00:30:15;102414.00000000001;;;3.03;60.02
32452;BME280;45528;52.102;5.242;2022-12-18T00:33:29;102407.0;;;3.01;60.2
32452;BME280;45528;52.102;5.242;2022-12-18T00:35:06;102403.0;;;3.08;60.12
32452;BME280;45528;52.102;5.242;2022-12-18T00:36:43;102400.0;;;3.1;60.01
32452;BME280;45528;52.102;5.242;2022-12-18T00:39:55;102399.0;;;3.07;60.01
32452;BME280;45528;52.102;5.242;2022-12-18T00:41:32;102400.0;;;3.1;60.12
32452;BME280;45528;52.102;5.242;2022-12-18T00:43:08;102395.0;;;3.11;59.99
32452;BME280;45528;52.102;5.242;2022-12-18T00:44:45;102398.0;;;3.14;60.07
32452;BME280;45528;52.102;5.242;2022-12-18T00:47:57;102397.0;;;3.04;60.2
32452;BME280;45528;52.102;5.242;2022-12-18T00:49:33;102402.0;;;3.01;60.28
32452;BME280;45528;52.102;5.242;2022-12-18T00:51:09;102404.0;;;3.07;60.2
32452;BME280;45528;52.102;5.242;2022-12-18T00:54:22;102402.0;;;2.9;60.54
32452;BME280;45528;52.102;5.242;2022-12-18T00:55:59;102404.0;;;2.87;60.66
32452;BME280;45528;52.102;5.242;2022-12-18T00:57:35;102402.0;;;2.86;60.59
32452;BME280;45528;52.102;5.242;2022-12-18T01:00:48;102397.0;;;2.93;60.58
32452;BME280;45528;52.102;5.242;2022-12-18T01:02:24;102398.0;;;2.88;60.55
32452;BME280;45528;52.102;5.242;2022-12-18T01:04:01;102394.0;;;2.94;60.43
32452;BME280;45528;52.102;5.242;2022-12-18T01:05:39;102398.0;;;2.95;60.32
32452;BME280;45528;52.102;5.242;2022-12-18T01:08:51;102403.0;;;3.06;60.08
32452;BME280;45528;52.102;5.242;2022-12-18T01:10:28;102408.0;;;2.99;60.09
32452;BME280;45528;52.102;5.242;2022-12-18T01:12:05;102408.0;;;2.78;60.62
32452;BME280;45528;52.102;5.242;2022-12-18T01:15:19;102408.0;;;2.68;60.25
32452;BME280;45528;52.102;5.242;2022-12-18T01:16:55;102402.0;;;2.86;60.25
32452;BME280;45528;52.102;5.242;2022-12-18T01:18:32;102398.0;;;2.54;60.55
32452;BME280;45528;52.102;5.242;2022-12-18T01:21:47;102398.0;;;2.75;60.57
32452;BME280;45528;52.102;5.242;2022-12-18T01:23:23;102398.0;;;2.77;60.5
32452;BME280;45528;52.102;5.242;2022-12-18T01:25:03;102402.0;;;2.81;60.34
32452;BME280;45528;52.102;5.242;2022-12-18T01:26:41;102413.00000000001;;;2.83;60.19
32452;BME280;45528;52.102;5.242;2022-12-18T01:29:53;102406.0;;;2.87;60.26
32452;BME280;45528;52.102;5.242;2022-12-18T01:31:32;102400.0;;;2.8;60.4
32452;BME280;45528;52.102;5.242;2022-12-18T01:33:09;102400.0;;;2.89;60.33
32452;BME280;45528;52.102;5.242;2022-12-18T01:36:23;102407.0;;;2.84;60.34
32452;BME280;45528;52.102;5.242;2022-12-18T01:38:01;102413.00000000001;;;2.93;59.97
32452;BME280;45528;52.102;5.242;2022-12-18T01:39:37;102413.00000000001;;;2.87;59.88
32452;BME280;45528;52.102;5.242;2022-12-18T01:41:14;102420.0;;;2.78;59.98
32452;BME280;45528;52.102;5.242;2022-12-18T01:45:04;102421.0;;;2.83;60.27
32452;BME280;45528;52.102;5.242;2022-12-18T01:46:57;102416.00000000001;;;2.76;60.49
32452;BME280;45528;52.102;5.242;2022-12-18T01:48:33;102411.99999999999;;;2.77;60.34
32452;BME280;45528;52.102;5.242;2022-12-18T01:50:11;102413.00000000001;;;2.74;60.59
32452;BME280;45528;52.102;5.242;2022-12-18T01:51:50;102419.0;;;2.8;60.18
32452;BME280;45528;52.102;5.242;2022-12-18T01:55:05;102424.0;;;2.86;60.31
32452;BME280;45528;52.102;5.242;2022-12-18T01:56:42;102425.0;;;2.9;60.21
32452;BME280;45528;52.102;5.242;2022-12-18T01:58:18;102420.0;;;2.89;60.43
32452;BME280;45528;52.102;5.242;2022-12-18T02:00:00;102424.0;;;2.84;60.11
32452;BME280;45528;52.102;5.242;2022-12-18T02:03:19;102424.0;;;2.8;59.93
32452;BME280;45528;52.102;5.242;2022-12-18T02:04:56;102421.0;;;2.85;59.84
32452;BME280;45528;52.102;5.242;2022-12-18T02:06:36;102418.0;;;2.9;59.49
32452;BME280;45528;52.102;5.242;2022-12-18T02:10:05;102419.0;;;2.85;59.23
32452;BME280;45528;52.102;5.242;2022-12-18T02:11:49;102428.0;;;2.81;59.19
32452;BME280;45528;52.102;5.242;2022-12-18T02:13:35;102431.0;;;2.7;59.29
32452;BME280;45528;52.102;5.242;2022-12-18T02:15:24;102428.0;;;2.73;59.15
32452;BME280;45528;52.102;5.242;2022-12-18T02:17:06;102428.0;;;2.71;59.05
32452;BME280;45528;52.102;5.242;2022-12-18T02:20:35;102433.99999999999;;;2.61;59.11
32452;BME280;45528;52.102;5.242;2022-12-18T02:22:27;102436.99999999999;;;2.57;59.27
32452;BME280;45528;52.102;5.242;2022-12-18T02:24:18;102433.99999999999;;;2.56;59.3
32452;BME280;45528;52.102;5.242;2022-12-18T02:26:06;102439.00000000001;;;2.48;59.29
32452;BME280;45528;52.102;5.242;2022-12-18T02:27:49;102439.00000000001;;;2.48;59.28
32452;BME280;45528;52.102;5.242;2022-12-18T02:29:29;102432.0;;;2.42;59.33
32452;BME280;45528;52.102;5.242;2022-12-18T02:32:52;102432.0;;;2.42;59.4
32452;BME280;45528;52.102;5.242;2022-12-18T02:34:32;102429.0;;;2.37;59.38
32452;BME280;45528;52.102;5.242;2022-12-18T02:36:15;102425.0;;;2.36;59.1
32452;BME280;45528;52.102;5.242;2022-12-18T02:37:53;102424.0;;;2.38;59.09
32452;BME280;45528;52.102;5.242;2022-12-18T02:41:09;102426.0;;;2.38;59.1
32452;BME280;45528;52.102;5.242;2022-12-18T02:42:46;102431.0;;;2.35;58.92
32452;BME280;45528;52.102;5.242;2022-12-18T02:44:22;102427.0;;;2.29;58.87
32452;BME280;45528;52.102;5.242;2022-12-18T02:47:56;102422.0;;;2.25;59.14
32452;BME280;45528;52.102;5.242;2022-12-18T02:49:38;102409.99999999999;;;2.21;59.15
32452;BME280;45528;52.102;5.242;2022-12-18T02:51:24;102407.0;;;2.21;59.0
32452;BME280;45528;52.102;5.242;2022-12-18T02:53:10;102414.00000000001;;;2.14;59.16
32452;BME280;45528;52.102;5.242;2022-12-18T02:54:59;102413.00000000001;;;2.12;59.02
32452;BME280;45528;52.102;5.242;2022-12-18T02:56:44;102408.99999999999;;;2.12;58.82
32452;BME280;45528;52.102;5.242;2022-12-18T03:00:13;102407.0;;;2.08;59.12
32452;BME280;45528;52.102;5.242;2022-12-18T03:01:55;102407.0;;;2.04;59.0
32452;BME280;45528;52.102;5.242;2022-12-18T03:03:36;102408.0;;;1.98;59.04
32452;BME280;45528;52.102;5.242;2022-12-18T03:05:17;102405.0;;;2.04;59.17
32452;BME280;45528;52.102;5.242;2022-12-18T03:07:01;102399.0;;;1.96;59.13
32452;BME280;45528;52.102;5.242;2022-12-18T03:10:26;102396.0;;;1.92;59.16
32452;BME280;45528;52.102;5.242;2022-12-18T03:12:09;102394.0;;;1.88;59.04
32452;BME280;45528;52.102;5.242;2022-12-18T03:13:54;102391.0;;;1.82;59.14
32452;BME280;45528;52.102;5.242;2022-12-18T03:15:35;102385.0;;;1.78;59.29
32452;BME280;45528;52.102;5.242;2022-12-18T03:18:58;102383.0;;;1.75;59.22
32452;BME280;45528;52.102;5.242;2022-12-18T03:20:39;102380.0;;;1.76;59.3
32452;BME280;45528;52.102;5.242;2022-12-18T03:22:20;102373.0;;;1.75;59.2
32452;BME280;45528;52.102;5.242;2022-12-18T03:23:59;102368.0;;;1.75;59.04
32452;BME280;45528;52.102;5.242;2022-12-18T03:27:19;102366.0;;;1.73;59.2
32452;BME280;45528;52.102;5.242;2022-12-18T03:29:02;102363.0;;;1.72;59.14
32452;BME280;45528;52.102;5.242;2022-12-18T03:30:45;102366.0;;;1.63;59.39
32452;BME280;45528;52.102;5.242;2022-12-18T03:32:25;102364.0;;;1.64;59.15
32452;BME280;45528;52.102;5.242;2022-12-18T03:35:49;102361.0;;;1.69;59.35
32452;BME280;45528;52.102;5.242;2022-12-18T03:37:25;102359.0;;;1.73;59.11
32452;BME280;45528;52.102;5.242;2022-12-18T03:39:02;102357.0;;;1.64;58.95
32452;BME280;45528;52.102;5.242;2022-12-18T03:40:56;102356.0;;;1.62;59.18
32452;BME280;45528;52.102;5.242;2022-12-18T03:42:39;102356.0;;;1.6;58.83
32452;BME280;45528;52.102;5.242;2022-12-18T03:46:12;102358.0;;;1.64;58.94
32452;BME280;45528;52.102;5.242;2022-12-18T03:47:58;102355.0;;;1.58;58.73
32452;BME280;45528;52.102;5.242;2022-12-18T03:49:40;102356.0;;;1.58;58.79
32452;BME280;45528;52.102;5.242;2022-12-18T03:51:25;102352.0;;;1.56;58.73
32452;BME280;45528;52.102;5.242;2022-12-18T03:53:14;102355.0;;;1.51;58.71
32452;BME280;45528;52.102;5.242;2022-12-18T03:56:37;102351.0;;;1.41;58.88
32452;BME280;45528;52.102;5.242;2022-12-18T03:58:19;102351.0;;;1.48;58.66
32452;BME280;45528;52.102;5.242;2022-12-18T04:00:00;102349.0;;;1.5;58.73
32452;BME280;45528;52.102;5.242;2022-12-18T04:01:40;102346.0;;;1.48;58.55
32452;BME280;45528;52.102;5.242;2022-12-18T04:04:59;102338.0;;;1.45;58.48
32452;BME280;45528;52.102;5.242;2022-12-18T04:06:38;102334.0;;;1.41;58.58
32452;BME280;45528;52.102;5.242;2022-12-18T04:08:16;102336.0;;;1.42;58.57
32452;BME280;45528;52.102;5.242;2022-12-18T04:09:54;102330.0;;;1.33;58.64
32452;BME280;45528;52.102;5.242;2022-12-18T04:13:09;102324.0;;;1.28;58.68
32452;BME280;45528;52.102;5.242;2022-12-18T04:14:45;102315.0;;;1.34;58.43
32452;BME280;45528;52.102;5.242;2022-12-18T04:16:21;102307.0;;;1.38;58.4
32452;BME280;45528;52.102;5.242;2022-12-18T04:19:33;102311.0;;;1.33;58.21
32452;BME280;45528;52.102;5.242;2022-12-18T04:21:10;102312.0;;;1.34;58.38
32452;BME280;45528;52.102;5.242;2022-12-18T04:22:47;102306.0;;;1.27;58.25
32452;BME280;45528;52.102;5.242;2022-12-18T04:24:24;102313.0;;;1.26;58.5
32452;BME280;45528;52.102;5.242;2022-12-18T04:27:36;102316.0;;;1.23;58.59
32452;BME280;45528;52.102;5.242;2022-12-18T04:29:12;102316.0;;;1.28;58.47
32452;BME280;45528;52.102;5.242;2022-12-18T04:30:48;102311.0;;;1.31;58.45
32452;BME280;45528;52.102;5.242;2022-12-18T04:34:01;102312.0;;;1.26;58.13
32452;BME280;45528;52.102;5.242;2022-12-18T04:35:37;102315.0;;;1.34;57.92
32452;BME280;45528;52.102;5.242;2022-12-18T04:37:13;102321.0;;;1.29;57.91
32452;BME280;45528;52.102;5.242;2022-12-18T04:40:25;102330.0;;;1.26;57.95
32452;BME280;45528;52.102;5.242;2022-12-18T04:42:02;102331.0;;;1.33;57.97
32452;BME280;45528;52.102;5.242;2022-12-18T04:43:38;102334.0;;;1.3;57.96
32452;BME280;45528;52.102;5.242;2022-12-18T04:46:50;102340.0;;;1.42;57.74
32452;BME280;45528;52.102;5.242;2022-12-18T04:48:26;102346.0;;;1.34;57.8
32452;BME280;45528;52.102;5.242;2022-12-18T04:50:03;102345.0;;;1.26;57.88
32452;BME280;45528;52.102;5.242;2022-12-18T04:51:40;102346.0;;;1.34;57.87
32452;BME280;45528;52.102;5.242;2022-12-18T04:54:52;102350.0;;;1.29;57.73
32452;BME280;45528;52.102;5.242;2022-12-18T04:56:30;102345.0;;;1.27;57.8
32452;BME280;45528;52.102;5.242;2022-12-18T04:58:07;102348.0;;;1.27;57.75
32452;BME280;45528;52.102;5.242;2022-12-18T05:01:19;102353.0;;;1.32;57.71
32452;BME280;45528;52.102;5.242;2022-12-18T05:02:55;102364.0;;;1.32;57.75
32452;BME280;45528;52.102;5.242;2022-12-18T05:04:31;102368.0;;;1.35;57.52
32452;BME280;45528;52.102;5.242;2022-12-18T05:07:45;102363.0;;;1.33;57.78
32452;BME280;45528;52.102;5.242;2022-12-18T05:09:21;102363.0;;;1.28;57.65
32452;BME280;45528;52.102;5.242;2022-12-18T05:11:00;102365.0;;;1.31;57.63
32452;BME280;45528;52.102;5.242;2022-12-18T05:12:37;102373.0;;;1.31;57.61
32452;BME280;45528;52.102;5.242;2022-12-18T05:15:51;102369.0;;;1.28;57.4
32452;BME280;45528;52.102;5.242;2022-12-18T05:17:28;102371.0;;;1.24;57.35
32452;BME280;45528;52.102;5.242;2022-12-18T05:19:04;102369.0;;;1.21;57.43
32452;BME280;45528;52.102;5.242;2022-12-18T05:22:17;102368.0;;;1.19;57.37
32452;BME280;45528;52.102;5.242;2022-12-18T05:23:53;102377.0;;;1.21;57.57
32452;BME280;45528;52.102;5.242;2022-12-18T05:25:29;102380.0;;;1.21;57.7
32452;BME280;45528;52.102;5.242;2022-12-18T05:28:41;102382.0;;;1.21;57.55
32452;BME280;45528;52.102;5.242;2022-12-18T05:30:18;102382.0;;;1.17;57.72
32452;BME280;45528;52.102;5.242;2022-12-18T05:31:54;102383.0;;;1.16;58.03
32452;BME280;45528;52.102;5.242;2022-12-18T05:33:32;102386.0;;;1.16;57.88
32452;BME280;45528;52.102;5.242;2022-12-18T05:36:47;102381.0;;;1.18;57.85
32452;BME280;45528;52.102;5.242;2022-12-18T05:38:25;102380.0;;;1.2;57.68
32452;BME280;45528;52.102;5.242;2022-12-18T05:40:02;102375.0;;;1.22;57.48
32452;BME280;45528;52.102;5.242;2022-12-18T05:43:17;102372.0;;;1.17;57.26
32452;BME280;45528;52.102;5.242;2022-12-18T05:44:53;102367.0;;;1.19;57.52
32452;BME280;45528;52.102;5.242;2022-12-18T05:46:30;102365.0;;;1.2;57.54
32452;BME280;45528;52.102;5.242;2022-12-18T05:48:06;102355.0;;;1.16;57.63
32452;BME280;45528;52.102;5.242;2022-12-18T05:51:21;102357.0;;;1.16;57.19
32452;BME280;45528;52.102;5.242;2022-12-18T05:52:57;102369.0;;;1.1;57.63
32452;BME280;45528;52.102;5.242;2022-12-18T05:54:34;102362.0;;;1.2;57.7
32452;BME280;45528;52.102;5.242;2022-12-18T05:57:50;102358.0;;;1.11;57.73
32452;BME280;45528;52.102;5.242;2022-12-18T05:59:26;102352.0;;;1.11;57.76
32452;BME280;45528;52.102;5.242;2022-12-18T06:01:08;102347.0;;;1.13;57.92
32452;BME280;45528;52.102;5.242;2022-12-18T06:02:46;102343.0;;;1.15;57.82
32452;BME280;45528;52.102;5.242;2022-12-18T06:05:59;102343.0;;;1.14;57.56
32452;BME280;45528;52.102;5.242;2022-12-18T06:07:35;102341.0;;;1.17;57.23
32452;BME280;45528;52.102;5.242;2022-12-18T06:09:11;102341.0;;;1.05;57.47
32452;BME280;45528;52.102;5.242;2022-12-18T06:12:27;102334.0;;;1.1;57.52
32452;BME280;45528;52.102;5.242;2022-12-18T06:14:04;102327.0;;;1.12;57.58
32452;BME280;45528;52.102;5.242;2022-12-18T06:15:41;102323.0;;;1.1;57.84
32452;BME280;45528;52.102;5.242;2022-12-18T06:18:56;102319.0;;;1.08;57.54
32452;BME280;45528;52.102;5.242;2022-12-18T06:20:32;102322.0;;;1.12;57.49
32452;BME280;45528;52.102;5.242;2022-12-18T06:22:08;102323.0;;;1.13;57.35
32452;BME280;45528;52.102;5.242;2022-12-18T06:25:20;102323.0;;;1.05;57.63
32452;BME280;45528;52.102;5.242;2022-12-18T06:26:56;102320.0;;;1.13;57.22
32452;BME280;45528;52.102;5.242;2022-12-18T06:28:33;102321.0;;;1.1;57.44
32452;BME280;45528;52.102;5.242;2022-12-18T06:30:10;102331.0;;;1.13;57.35
32452;BME280;45528;52.102;5.242;2022-12-18T06:33:26;102328.0;;;1.16;57.11
32452;BME280;45528;52.102;5.242;2022-12-18T06:35:03;102330.0;;;1.21;57.11
32452;BME280;45528;52.102;5.242;2022-12-18T06:36:40;102323.0;;;1.21;56.99
32452;BME280;45528;52.102;5.242;2022-12-18T06:38:16;102316.0;;;1.18;57.07
32452;BME280;45528;52.102;5.242;2022-12-18T06:41:28;102311.0;;;1.16;56.96
32452;BME280;45528;52.102;5.242;2022-12-18T06:43:05;102312.0;;;1.11;57.27
32452;BME280;45528;52.102;5.242;2022-12-18T06:44:42;102310.0;;;1.16;57.21
32452;BME280;45528;52.102;5.242;2022-12-18T06:47:55;102305.0;;;1.16;56.95
32452;BME280;45528;52.102;5.242;2022-12-18T06:49:31;102295.0;;;1.16;57.08
32452;BME280;45528;52.102;5.242;2022-12-18T06:51:08;102291.0;;;1.12;56.98
32452;BME280;45528;52.102;5.242;2022-12-18T06:54:20;102284.0;;;1.03;56.98
32452;BME280;45528;52.102;5.242;2022-12-18T06:56:00;102285.0;;;0.97;57.18
32452;BME280;45528;52.102;5.242;2022-12-18T06:57:37;102282.0;;;0.98;57.08
32452;BME280;45528;52.102;5.242;2022-12-18T06:59:15;102278.0;;;0.94;57.01
32452;BME280;45528;52.102;5.242;2022-12-18T07:02:27;102280.0;;;0.94;57.15
32452;BME280;45528;52.102;5.242;2022-12-18T07:04:03;102281.0;;;0.89;57.08
32452;BME280;45528;52.102;5.242;2022-12-18T07:05:40;102281.0;;;0.89;57.3
32452;BME280;45528;52.102;5.242;2022-12-18T07:08:54;102278.0;;;0.87;57.22
32452;BME280;45528;52.102;5.242;2022-12-18T07:10:31;102273.0;;;0.82;57.31
32452;BME280;45528;52.102;5.242;2022-12-18T07:12:07;102267.0;;;0.79;57.18
32452;BME280;45528;52.102;5.242;2022-12-18T07:15:20;102271.0;;;0.8;57.29
32452;BME280;45528;52.102;5.242;2022-12-18T07:16:56;102261.0;;;0.81;57.16
32452;BME280;45528;52.102;5.242;2022-12-18T07:18:33;102263.0;;;0.77;57.13
32452;BME280;45528;52.102;5.242;2022-12-18T07:20:10;102262.0;;;0.79;57.45
32452;BME280;45528;52.102;5.242;2022-12-18T07:23:22;102260.0;;;0.81;57.07
32452;BME280;45528;52.102;5.242;2022-12-18T07:24:58;102255.0;;;0.81;57.14
32452;BME280;45528;52.102;5.242;2022-12-18T07:26:35;102259.0;;;0.82;57.21
32452;BME280;45528;52.102;5.242;2022-12-18T07:29:47;102260.0;;;0.74;57.36
32452;BME280;45528;52.102;5.242;2022-12-18T07:31:24;102259.0;;;0.79;57.31
32452;BME280;45528;52.102;5.242;2022-12-18T07:33:00;102259.0;;;0.75;57.85
32452;BME280;45528;52.102;5.242;2022-12-18T07:36:13;102249.0;;;0.79;57.72
32452;BME280;45528;52.102;5.242;2022-12-18T07:37:50;102241.0;;;0.8;57.5
32452;BME280;45528;52.102;5.242;2022-12-18T07:39:26;102233.0;;;0.77;57.31
32452;BME280;45528;52.102;5.242;2022-12-18T07:41:04;102232.0;;;0.75;57.48
32452;BME280;45528;52.102;5.242;2022-12-18T07:44:17;102228.0;;;0.76;57.83
32452;BME280;45528;52.102;5.242;2022-12-18T07:45:55;102231.0;;;0.85;57.56
32452;BME280;45528;52.102;5.242;2022-12-18T07:47:34;102227.0;;;0.89;57.63
32452;BME280;45528;52.102;5.242;2022-12-18T07:50:47;102217.0;;;0.94;57.54
32452;BME280;45528;52.102;5.242;2022-12-18T07:52:22;102217.0;;;0.95;57.62
32452;BME280;45528;52.102;5.242;2022-12-18T07:53:59;102218.0;;;1.03;57.86
32452;BME280;45528;52.102;5.242;2022-12-18T07:57:11;102217.0;;;1.1;57.7
32452;BME280;45528;52.102;5.242;2022-12-18T07:58:48;102216.0;;;1.11;57.4
32452;BME280;45528;52.102;5.242;2022-12-18T08:00:24;102210.0;;;1.17;57.46
32452;BME280;45528;52.102;5.242;2022-12-18T08:02:00;102213.0;;;1.25;57.4
32452;BME280;45528;52.102;5.242;2022-12-18T08:05:14;102212.0;;;1.27;57.27
32452;BME280;45528;52.102;5.242;2022-12-18T08:06:51;102205.0;;;1.34;57.3
32452;BME280;45528;52.102;5.242;2022-12-18T08:08:27;102200.0;;;1.39;57.26
32452;BME280;45528;52.102;5.242;2022-12-18T08:11:42;102194.0;;;1.4;57.14
32452;BME280;45528;52.102;5.242;2022-12-18T08:13:19;102200.0;;;1.4;57.26
32452;BME280;45528;52.102;5.242;2022-12-18T08:14:54;102206.0;;;1.42;57.36
32452;BME280;45528;52.102;5.242;2022-12-18T08:18:07;102212.0;;;1.5;57.61
32452;BME280;45528;52.102;5.242;2022-12-18T08:19:43;102215.0;;;1.56;57.35
32452;BME280;45528;52.102;5.242;2022-12-18T08:21:22;102224.0;;;1.62;57.46
32452;BME280;45528;52.102;5.242;2022-12-18T08:22:58;102226.0;;;1.75;57.19
32452;BME280;45528;52.102;5.242;2022-12-18T08:26:11;102228.0;;;1.84;56.83
32452;BME280;45528;52.102;5.242;2022-12-18T08:27:47;102231.0;;;1.89;56.84
32452;BME280;45528;52.102;5.242;2022-12-18T08:29:24;102233.0;;;1.96;56.85
32452;BME280;45528;52.102;5.242;2022-12-18T08:32:36;102234.0;;;1.73;57.46
32452;BME280;45528;52.102;5.242;2022-12-18T08:34:11;102234.0;;;2.02;57.16
32452;BME280;45528;52.102;5.242;2022-12-18T08:35:48;102238.0;;;2.07;57.05
32452;BME280;45528;52.102;5.242;2022-12-18T08:39:00;102244.0;;;2.04;56.89
32452;BME280;45528;52.102;5.242;2022-12-18T08:40:36;102242.0;;;2.23;56.8
32452;BME280;45528;52.102;5.242;2022-12-18T08:43:48;102232.0;;;2.06;57.45
32452;BME280;45528;52.102;5.242;2022-12-18T08:47:01;102226.0;;;2.17;57.25
32452;BME280;45528;52.102;5.242;2022-12-18T08:48:37;102219.0;;;2.29;57.07
32452;BME280;45528;52.102;5.242;2022-12-18T08:50:14;102219.0;;;2.33;56.87
32452;BME280;45528;52.102;5.242;2022-12-18T08:53:30;102216.0;;;2.44;57.0
32452;BME280;45528;52.102;5.242;2022-12-18T08:55:08;102219.0;;;2.5;56.84
32452;BME280;45528;52.102;5.242;2022-12-18T08:56:44;102216.0;;;2.39;56.87
32452;BME280;45528;52.102;5.242;2022-12-18T08:59:57;102221.0;;;2.59;56.88
32452;BME280;45528;52.102;5.242;2022-12-18T09:01:33;102220.0;;;2.67;56.57
32452;BME280;45528;52.102;5.242;2022-12-18T09:03:11;102220.0;;;2.65;56.59
32452;BME280;45528;52.102;5.242;2022-12-18T09:04:48;102212.0;;;2.63;56.62
32452;BME280;45528;52.102;5.242;2022-12-18T09:08:00;102209.0;;;2.63;56.92
32452;BME280;45528;52.102;5.242;2022-12-18T09:09:36;102209.0;;;2.73;56.67
32452;BME280;45528;52.102;5.242;2022-12-18T09:11:15;102217.0;;;2.79;56.68
32452;BME280;45528;52.102;5.242;2022-12-18T09:14:30;102227.0;;;2.87;56.32
32452;BME280;45528;52.102;5.242;2022-12-18T09:16:06;102226.0;;;2.82;56.47
32452;BME280;45528;52.102;5.242;2022-12-18T09:17:43;102232.0;;;2.87;56.4
32452;BME280;45528;52.102;5.242;2022-12-18T09:20:55;102226.0;;;2.92;56.22
32452;BME280;45528;52.102;5.242;2022-12-18T09:22:31;102223.0;;;2.99;56.2
32452;BME280;45528;52.102;5.242;2022-12-18T09:24:11;102221.0;;;3.03;56.25
32452;BME280;45528;52.102;5.242;2022-12-18T09:25:49;102220.0;;;3.01;56.0
32452;BME280;45528;52.102;5.242;2022-12-18T09:29:02;102218.0;;;3.12;56.12
32452;BME280;45528;52.102;5.242;2022-12-18T09:30:39;102223.0;;;3.2;55.76
32452;BME280;45528;52.102;5.242;2022-12-18T09:32:16;102213.0;;;3.16;55.86
32452;BME280;45528;52.102;5.242;2022-12-18T09:35:31;102207.0;;;3.02;56.13
32452;BME280;45528;52.102;5.242;2022-12-18T09:37:07;102203.0;;;3.12;56.22
32452;BME280;45528;52.102;5.242;2022-12-18T09:38:43;102203.0;;;3.13;56.15
32452;BME280;45528;52.102;5.242;2022-12-18T09:40:24;102197.0;;;3.02;56.25
32452;BME280;45528;52.102;5.242;2022-12-18T09:43:42;102192.0;;;3.2;56.12
32452;BME280;45528;52.102;5.242;2022-12-18T09:45:21;102197.0;;;2.98;56.1
32452;BME280;45528;52.102;5.242;2022-12-18T09:47:04;102192.0;;;3.05;56.37
32452;BME280;45528;52.102;5.242;2022-12-18T09:48:48;102187.0;;;3.01;56.16
32452;BME280;45528;52.102;5.242;2022-12-18T09:52:12;102192.0;;;3.29;56.02
32452;BME280;45528;52.102;5.242;2022-12-18T09:53:55;102186.0;;;3.49;55.45
32452;BME280;45528;52.102;5.242;2022-12-18T09:55:34;102187.0;;;3.53;55.33
32452;BME280;45528;52.102;5.242;2022-12-18T09:57:14;102189.0;;;3.59;54.89
32452;BME280;45528;52.102;5.242;2022-12-18T10:00:35;102182.0;;;3.57;55.31
32452;BME280;45528;52.102;5.242;2022-12-18T10:02:14;102178.0;;;3.64;55.02
32452;BME280;45528;52.102;5.242;2022-12-18T10:03:52;102176.0;;;3.64;55.06
32452;BME280;45528;52.102;5.242;2022-12-18T10:05:36;102170.0;;;3.43;55.64
32452;BME280;45528;52.102;5.242;2022-12-18T10:09:15;102170.0;;;3.58;55.38
32452;BME280;45528;52.102;5.242;2022-12-18T10:11:00;102168.0;;;3.56;55.56
32452;BME280;45528;52.102;5.242;2022-12-18T10:12:53;102164.0;;;3.68;55.33
32452;BME280;45528;52.102;5.242;2022-12-18T10:14:36;102164.0;;;3.7;54.96
32452;BME280;45528;52.102;5.242;2022-12-18T10:16:20;102164.0;;;3.79;54.87
32452;BME280;45528;52.102;5.242;2022-12-18T10:18:11;102176.0;;;3.9;54.63
32452;BME280;45528;52.102;5.242;2022-12-18T10:21:43;102180.0;;;3.77;54.64
32452;BME280;45528;52.102;5.242;2022-12-18T10:23:28;102185.0;;;3.89;54.56
32452;BME280;45528;52.102;5.242;2022-12-18T10:25:17;102175.0;;;3.9;54.69
32452;BME280;45528;52.102;5.242;2022-12-18T10:26:59;102174.0;;;4.12;54.21
32452;BME280;45528;52.102;5.242;2022-12-18T10:28:45;102174.0;;;4.03;54.45
32452;BME280;45528;52.102;5.242;2022-12-18T10:32:01;102175.0;;;4.13;54.34
32452;BME280;45528;52.102;5.242;2022-12-18T10:33:38;102170.0;;;4.26;54.3
32452;BME280;45528;52.102;5.242;2022-12-18T10:35:18;102161.0;;;4.41;53.96
32452;BME280;45528;52.102;5.242;2022-12-18T10:36:56;102164.0;;;4.33;53.95
32452;BME280;45528;52.102;5.242;2022-12-18T10:40:11;102164.0;;;4.16;54.33
32452;BME280;45528;52.102;5.242;2022-12-18T10:41:49;102162.0;;;4.21;54.06
32452;BME280;45528;52.102;5.242;2022-12-18T10:43:27;102155.0;;;4.42;53.7
32452;BME280;45528;52.102;5.242;2022-12-18T10:46:52;102143.0;;;4.45;53.65
32452;BME280;45528;52.102;5.242;2022-12-18T10:48:30;102138.0;;;4.45;53.55
32452;BME280;45528;52.102;5.242;2022-12-18T10:50:19;102133.0;;;4.53;53.56
32452;BME280;45528;52.102;5.242;2022-12-18T10:52:05;102135.0;;;4.53;53.43
32452;BME280;45528;52.102;5.242;2022-12-18T10:53:52;102137.0;;;4.55;53.72
32452;BME280;45528;52.102;5.242;2022-12-18T10:57:29;102136.0;;;4.46;53.7
32452;BME280;45528;52.102;5.242;2022-12-18T10:59:09;102137.0;;;4.57;53.65
32452;BME280;45528;52.102;5.242;2022-12-18T11:01:02;102132.0;;;4.59;53.58
32452;BME280;45528;52.102;5.242;2022-12-18T11:02:39;102125.0;;;4.63;53.27
32452;BME280;45528;52.102;5.242;2022-12-18T11:04:18;102118.0;;;4.61;53.39
32452;BME280;45528;52.102;5.242;2022-12-18T11:07:48;102115.0;;;4.63;53.08
32452;BME280;45528;52.102;5.242;2022-12-18T11:09:26;102112.0;;;4.67;53.26
32452;BME280;45528;52.102;5.242;2022-12-18T11:11:04;102119.0;;;4.74;53.48
32452;BME280;45528;52.102;5.242;2022-12-18T11:12:44;102111.0;;;4.68;53.24
32452;BME280;45528;52.102;5.242;2022-12-18T11:16:00;102111.0;;;4.75;53.39
32452;BME280;45528;52.102;5.242;2022-12-18T11:17:36;102100.0;;;4.79;53.12